Time;durP1;ratioP1;P1;durP2;ratioP2;P2;SDS_P1;SDS_P2;PMS_P1;PMS_P2;Temp;Humidity;BMP_temperature;BMP_pressure;BME280_temperature;BME280_humidity;BME280_pressure;Samples;Min_cycle;Max_cycle;Signal;HPM_P1;HPM_P2
2022/05/23 00:01:27;;;;;;;2.47;0.88;;;;;;;14.20;57.33;99601.84;6228779;28;20104;-74
2022/05/23 00:04:28;;;;;;;2.33;0.98;;;;;;;14.14;56.93;99613.66;6212668;28;20091;-74
2022/05/23 00:07:35;;;;;;;6.15;1.00;;;;;;;14.13;57.19;99611.19;6246315;28;20050;-73
2022/05/23 00:10:37;;;;;;;3.45;0.95;;;;;;;14.07;59.32;99612.53;6246292;28;20084;-74
2022/05/23 00:13:38;;;;;;;4.78;1.13;;;;;;;14.11;57.30;99611.31;6246607;28;20037;-74
2022/05/23 00:16:45;;;;;;;1.67;0.80;;;;;;;14.07;57.88;99615.97;6251305;28;20045;-74
2022/05/23 00:19:47;;;;;;;1.80;0.80;;;;;;;14.04;58.21;99620.63;6251340;28;20116;-74
2022/05/23 00:22:49;;;;;;;2.15;0.98;;;;;;;14.08;59.03;99615.03;6233714;28;20041;-74
2022/05/23 00:25:50;;;;;;;2.53;0.63;;;;;;;13.99;58.79;99613.16;6233754;28;20400;-74
2022/05/23 00:28:51;;;;;;;3.53;1.30;;;;;;;13.92;59.10;99617.25;6251110;28;20041;-75
2022/05/23 00:35:20;;;;;;;4.03;1.05;;;;;;;13.83;60.23;99628.47;6233083;28;20045;-74
2022/05/23 00:38:21;;;;;;;2.03;0.75;;;;;;;13.88;59.68;99631.56;6232971;28;20049;-73
2022/05/23 00:44:55;;;;;;;3.00;1.08;;;;;;;13.85;60.78;99637.88;6250738;28;20037;-74
2022/05/23 00:47:56;;;;;;;2.55;0.90;;;;;;;13.92;59.40;99632.97;6233028;28;20075;-74
2022/05/23 00:51:00;;;;;;;1.48;0.80;;;;;;;13.95;60.46;99635.34;6250545;28;20041;-74
2022/05/23 00:54:04;;;;;;;1.30;0.80;;;;;;;13.80;61.08;99626.94;6250657;28;20534;-74
2022/05/23 00:57:08;;;;;;;1.55;0.90;;;;;;;13.80;60.04;99636.59;6216093;28;20068;-74
2022/05/23 01:00:10;;;;;;;3.08;0.93;;;;;;;13.81;59.81;99633.81;6250478;28;20037;-74
2022/05/23 01:03:14;;;;;;;2.60;1.10;;;;;;;13.78;59.94;99634.09;6250452;28;20041;-74
2022/05/23 01:06:15;;;;;;;2.90;0.95;;;;;;;13.72;60.64;99633.75;6232689;28;20451;-74
2022/05/23 01:09:20;;;;;;;1.27;0.80;;;;;;;13.70;61.00;99641.75;6232548;28;20068;-73
2022/05/23 01:12:21;;;;;;;5.40;0.90;;;;;;;13.59;62.79;99645.22;6232986;28;20042;-73
2022/05/23 01:15:28;;;;;;;2.42;1.00;;;;;;;13.49;63.82;99641.69;6249990;28;20042;-74
2022/05/23 01:18:29;;;;;;;2.90;0.80;;;;;;;13.41;63.22;99639.66;6249851;28;20042;-74
2022/05/23 01:21:55;;;;;;;3.10;1.00;;;;;;;13.30;64.42;99648.38;6232382;28;20096;-75
2022/05/23 01:25:15;;;;;;;2.38;0.98;;;;;;;13.28;64.89;99647.63;6232072;28;20042;-74
2022/05/23 01:28:18;;;;;;;1.38;0.88;;;;;;;13.23;65.12;99651.56;6231672;28;20071;-74
2022/05/23 01:31:19;;;;;;;3.08;1.00;;;;;;;13.15;64.33;99644.28;6215617;28;20049;-74
2022/05/23 01:34:20;;;;;;;1.60;0.90;;;;;;;13.15;64.22;99646.09;6249591;28;20500;-74
2022/05/23 01:37:21;;;;;;;1.23;0.70;;;;;;;13.05;66.71;99646.81;6231834;28;20218;-74
2022/05/23 01:40:22;;;;;;;1.75;1.00;;;;;;;12.99;65.45;99646.44;6249481;28;20099;-74
2022/05/23 01:43:24;;;;;;;1.53;1.17;;;;;;;12.85;66.71;99635.25;6231804;28;20096;-75
2022/05/23 01:46:25;;;;;;;3.25;1.00;;;;;;;12.87;68.52;99643.00;6215648;28;20626;-75
2022/05/23 01:49:27;;;;;;;1.63;1.00;;;;;;;12.81;67.25;99643.47;6232065;28;20120;-75
2022/05/23 01:52:28;;;;;;;2.25;0.90;;;;;;;12.73;67.11;99643.22;6231756;28;20434;-74
2022/05/23 01:55:29;;;;;;;4.22;1.13;;;;;;;12.68;67.51;99643.56;6249089;28;20045;-75
2022/05/23 02:01:50;;;;;;;2.22;0.90;;;;;;;12.62;67.88;99650.13;6249897;28;20049;-75
2022/05/23 02:04:52;;;;;;;1.23;0.82;;;;;;;12.46;69.03;99650.44;6249955;28;20048;-74
2022/05/23 02:07:54;;;;;;;2.47;1.00;;;;;;;12.44;68.84;99657.56;6249602;28;20065;-74
2022/05/23 02:10:55;;;;;;;1.10;0.85;;;;;;;12.48;69.89;99650.31;6249814;28;20053;-74
2022/05/23 02:13:56;;;;;;;2.72;1.02;;;;;;;12.44;70.18;99657.56;6231810;28;20140;-74
2022/05/23 02:16:57;;;;;;;1.98;1.00;;;;;;;12.34;69.07;99659.19;6199663;28;20376;-74
2022/05/23 02:19:58;;;;;;;4.57;1.30;;;;;;;12.21;69.88;99646.22;6231516;28;20495;-74
2022/05/23 02:22:59;;;;;;;6.70;1.27;;;;;;;12.29;71.38;99643.00;6249375;28;20062;-74
2022/05/23 02:26:00;;;;;;;1.45;0.75;;;;;;;12.12;70.77;99643.44;6231684;28;20044;-74
2022/05/23 02:29:03;;;;;;;3.05;1.02;;;;;;;12.07;72.51;99649.84;6215388;28;20392;-74
2022/05/23 02:32:04;;;;;;;1.48;1.00;;;;;;;12.09;71.67;99649.72;6231492;28;20107;-74
2022/05/23 02:35:07;;;;;;;1.73;1.10;;;;;;;12.03;72.60;99647.56;6249133;28;20431;-74
2022/05/23 02:38:08;;;;;;;3.60;1.05;;;;;;;11.99;72.47;99646.13;6248708;28;20587;-74
2022/05/23 02:41:08;;;;;;;2.78;1.08;;;;;;;12.07;71.25;99652.44;6248822;28;20045;-74
2022/05/23 02:44:09;;;;;;;1.27;1.00;;;;;;;12.11;71.17;99653.06;6231380;28;20071;-74
2022/05/23 02:47:10;;;;;;;2.85;1.25;;;;;;;12.07;72.83;99643.78;6248874;28;20060;-74
2022/05/23 02:50:12;;;;;;;2.28;1.13;;;;;;;12.08;72.95;99642.81;6248628;28;20046;-74
2022/05/23 02:53:13;;;;;;;3.65;0.90;;;;;;;12.00;71.32;99643.38;6248527;28;20044;-74
2022/05/23 02:56:15;;;;;;;4.68;1.00;;;;;;;12.04;73.51;99644.00;6248441;28;20046;-75
2022/05/23 02:59:16;;;;;;;2.08;1.13;;;;;;;12.08;71.44;99641.03;6197967;28;20041;-75
2022/05/23 03:05:41;;;;;;;3.95;1.40;;;;;;;12.06;71.28;99648.16;6247385;28;20045;-73
2022/05/23 03:08:42;;;;;;;2.78;1.20;;;;;;;12.12;71.28;99646.03;6229553;28;20463;-74
2022/05/23 03:11:44;;;;;;;4.83;1.50;;;;;;;12.12;71.15;99646.88;6247519;28;20056;-73
2022/05/23 03:14:45;;;;;;;1.45;1.20;;;;;;;12.13;70.90;99642.47;6247226;28;20045;-74
2022/05/23 03:17:47;;;;;;;4.00;1.30;;;;;;;12.15;71.02;99644.03;6213324;28;20038;-74
2022/05/23 03:20:54;;;;;;;3.22;1.20;;;;;;;12.16;70.82;99635.22;6246981;28;20049;-74
2022/05/23 03:27:15;;;;;;;3.53;1.70;;;;;;;12.14;70.92;99638.91;6246950;28;20456;-73
2022/05/23 03:30:16;;;;;;;4.78;1.30;;;;;;;12.18;71.33;99645.59;6229571;28;20037;-74
2022/05/23 03:33:18;;;;;;;4.80;1.63;;;;;;;12.24;71.23;99642.53;6196717;28;20173;-74
2022/05/23 03:36:19;;;;;;;4.70;1.77;;;;;;;12.27;70.85;99645.75;6229017;28;20049;-74
2022/05/23 03:39:20;;;;;;;4.07;1.65;;;;;;;12.27;70.79;99644.91;6246690;28;20048;-73
2022/05/23 03:42:21;;;;;;;4.13;1.50;;;;;;;12.32;71.06;99641.97;6229180;28;20038;-74
2022/05/23 03:45:22;;;;;;;6.20;1.35;;;;;;;12.36;70.78;99635.56;6229170;28;20042;-74
2022/05/23 03:48:23;;;;;;;4.87;1.47;;;;;;;12.36;70.77;99636.38;6212156;28;20056;-74
2022/05/23 03:51:24;;;;;;;2.13;1.20;;;;;;;12.36;72.34;99640.78;6212535;28;20053;-74
2022/05/23 03:54:25;;;;;;;3.58;1.05;;;;;;;12.37;70.98;99645.88;6246524;28;20037;-74
2022/05/23 03:57:26;;;;;;;3.85;1.35;;;;;;;12.35;70.98;99646.94;6245449;28;20068;-75
2022/05/23 04:00:29;;;;;;;2.35;1.20;;;;;;;12.37;72.44;99655.50;6211297;28;20072;-75
2022/05/23 04:03:30;;;;;;;2.95;1.33;;;;;;;12.41;73.24;99660.41;6246637;28;20041;-74
2022/05/23 04:06:31;;;;;;;4.00;1.58;;;;;;;12.42;71.66;99649.00;6228434;28;20049;-74
2022/05/23 04:09:32;;;;;;;4.32;1.60;;;;;;;12.53;71.57;99653.41;6246438;28;20116;-74
2022/05/23 04:12:33;;;;;;;2.35;1.13;;;;;;;12.60;70.99;99648.53;6228729;28;20136;-74
2022/05/23 04:15:34;;;;;;;1.83;1.48;;;;;;;12.74;71.14;99655.34;6228361;28;21685;-74
2022/05/23 04:18:36;;;;;;;4.45;1.35;;;;;;;12.79;71.90;99635.72;6246164;28;20045;-74
2022/05/23 04:21:40;;;;;;;3.83;1.20;;;;;;;12.88;70.65;99639.41;6243040;28;20034;-74
2022/05/23 04:24:42;;;;;;;2.75;1.48;;;;;;;12.97;70.43;99638.72;6229513;28;20046;-74
2022/05/23 04:27:42;;;;;;;1.50;1.00;;;;;;;12.98;70.58;99637.75;6246234;28;20472;-74
2022/05/23 04:30:45;;;;;;;2.17;0.95;;;;;;;13.07;69.69;99644.91;6212397;28;20470;-73
2022/05/23 04:37:05;;;;;;;8.98;1.40;;;;;;;13.25;68.56;99637.38;6216636;28;19921;-73
2022/05/23 04:40:07;;;;;;;3.20;1.63;;;;;;;13.29;69.11;99640.63;6246691;28;20055;-74
2022/05/23 04:43:07;;;;;;;9.48;1.73;;;;;;;13.34;70.71;99635.03;6246483;28;20038;-73
2022/05/23 04:46:08;;;;;;;4.85;1.50;;;;;;;13.36;69.26;99627.88;6246261;28;20056;-73
2022/05/23 04:52:29;;;;;;;2.40;1.40;;;;;;;13.52;68.26;99638.81;6246949;28;20051;-73
2022/05/23 04:55:30;;;;;;;2.90;1.63;;;;;;;13.65;68.82;99639.50;6246151;28;20050;-73
2022/05/23 04:58:30;;;;;;;7.78;1.90;;;;;;;13.70;68.14;99649.59;6228765;28;20085;-73
2022/05/23 05:01:31;;;;;;;5.88;1.80;;;;;;;13.78;67.93;99649.00;6198109;28;20049;-74
2022/05/23 05:04:33;;;;;;;4.68;2.05;;;;;;;13.78;68.55;99634.09;6233583;28;20075;-73
2022/05/23 05:07:34;;;;;;;2.90;1.55;;;;;;;13.89;68.12;99644.53;6232881;28;20072;-74
2022/05/23 05:10:34;;;;;;;2.90;1.60;;;;;;;13.93;67.21;99644.28;6233337;28;20046;-74
2022/05/23 05:13:36;;;;;;;3.50;1.60;;;;;;;13.93;67.36;99645.13;6232457;28;20075;-74
2022/05/23 05:16:37;;;;;;;1.95;1.42;;;;;;;14.04;66.50;99663.44;6216374;28;20403;-73
2022/05/23 05:19:38;;;;;;;5.05;1.83;;;;;;;14.10;67.25;99651.59;6232451;28;20458;-74
2022/05/23 05:22:39;;;;;;;8.30;1.45;;;;;;;14.16;68.51;99660.78;6232456;28;20050;-74
2022/05/23 05:25:43;;;;;;;3.07;1.43;;;;;;;14.25;66.67;99660.03;6216053;28;20068;-73
2022/05/23 05:28:44;;;;;;;1.88;1.40;;;;;;;14.22;67.47;99658.47;6249886;28;20045;-74
2022/05/23 05:31:53;;;;;;;7.13;1.55;;;;;;;14.32;66.80;99662.00;6231931;28;20507;-75
2022/05/23 05:34:59;;;;;;;2.17;1.38;;;;;;;14.44;66.97;99659.31;6249797;28;20094;-75
2022/05/23 05:38:57;;;;;;;3.63;1.70;;;;;;;14.60;64.33;99665.00;6249503;28;20041;-74
2022/05/23 05:42:28;;;;;;;5.53;1.63;;;;;;;14.60;65.03;99661.50;6164142;28;20072;-74
2022/05/23 05:45:34;;;;;;;5.32;1.60;;;;;;;14.72;63.69;99670.97;6228186;28;20053;-74
2022/05/23 05:48:40;;;;;;;3.55;1.80;;;;;;;14.75;63.07;99670.75;6249429;28;20517;-74
2022/05/23 05:51:43;;;;;;;7.32;1.65;;;;;;;14.79;63.12;99664.25;6232596;28;20541;-75
2022/05/23 05:54:44;;;;;;;2.80;1.70;;;;;;;14.96;62.29;99656.75;6210714;28;20275;-74
2022/05/23 05:57:45;;;;;;;3.85;1.65;;;;;;;15.06;61.44;99657.63;6190792;28;20049;-74
2022/05/23 06:00:46;;;;;;;3.92;1.50;;;;;;;15.17;60.88;99656.69;6207336;28;20079;-74
2022/05/23 06:03:46;;;;;;;3.33;1.40;;;;;;;15.18;58.87;99666.25;6220426;28;20053;-74
2022/05/23 06:13:29;;;;;;;2.00;1.30;;;;;;;15.54;60.58;99672.69;6239469;28;20076;-73
2022/05/23 06:16:34;;;;;;;3.15;1.40;;;;;;;15.65;58.34;99675.25;6199186;28;20060;-74
2022/05/23 06:19:41;;;;;;;1.90;1.73;;;;;;;15.79;57.95;99675.81;6214324;28;20049;-74
2022/05/23 06:22:42;;;;;;;1.77;1.55;;;;;;;15.91;55.84;99677.38;6229957;28;20054;-74
2022/05/23 06:25:42;;;;;;;2.35;1.40;;;;;;;15.69;56.33;99676.63;6214563;28;20061;-74
2022/05/23 06:28:44;;;;;;;4.40;1.70;;;;;;;16.01;55.56;99677.38;6209827;28;20124;-74
2022/05/23 06:31:47;;;;;;;1.95;1.40;;;;;;;16.19;56.02;99672.28;6226892;28;20056;-74
2022/05/23 06:34:48;;;;;;;2.30;1.65;;;;;;;16.27;55.49;99665.34;6235708;28;20057;-73
2022/05/23 06:37:49;;;;;;;3.03;1.50;;;;;;;16.28;56.34;99666.97;6267962;28;20084;-74
2022/05/23 06:40:51;;;;;;;3.53;1.60;;;;;;;16.36;55.23;99674.19;6214807;28;20069;-74
2022/05/23 06:43:52;;;;;;;5.53;2.20;;;;;;;16.51;54.70;99674.59;6235124;28;20071;-74
2022/05/23 06:46:53;;;;;;;7.72;2.08;;;;;;;16.62;53.65;99671.81;6213858;28;20077;-74
2022/05/23 06:49:54;;;;;;;4.75;1.85;;;;;;;16.84;53.93;99683.84;6210809;28;20521;-74
2022/05/23 06:52:55;;;;;;;2.87;1.73;;;;;;;16.82;52.31;99683.16;6230531;28;20643;-74
2022/05/23 06:55:57;;;;;;;5.03;2.25;;;;;;;16.85;52.44;99682.88;6213249;28;20061;-74
2022/05/23 06:58:58;;;;;;;2.90;1.92;;;;;;;17.01;50.33;99681.44;6225743;28;20346;-74
2022/05/23 07:01:59;;;;;;;1.80;1.52;;;;;;;16.91;50.86;99673.56;6247752;28;20057;-74
2022/05/23 07:14:58;;;;;;;4.50;1.95;;;;;;;17.32;51.11;99684.66;6223510;28;20053;-74
2022/05/23 07:17:58;;;;;;;3.38;1.85;;;;;;;17.66;48.36;99687.50;6242865;28;20077;-74
2022/05/23 07:20:59;;;;;;;3.42;1.67;;;;;;;17.80;49.94;99670.34;6247113;28;20053;-75
2022/05/23 07:24:00;;;;;;;4.75;1.77;;;;;;;18.08;50.41;99671.16;6229403;28;20131;-74
2022/05/23 07:27:02;;;;;;;2.75;1.60;;;;;;;17.98;46.42;99682.75;6210898;28;20045;-75
2022/05/23 07:30:03;;;;;;;7.05;1.95;;;;;;;17.91;46.31;99682.50;6207094;28;20046;-74
2022/05/23 07:33:04;;;;;;;7.10;1.77;;;;;;;17.84;47.53;99673.53;6204466;28;20453;-74
2022/05/23 07:36:07;;;;;;;6.15;1.60;;;;;;;18.07;45.69;99666.81;6192591;28;20295;-74
2022/05/23 07:39:09;;;;;;;4.93;1.65;;;;;;;18.10;47.44;99676.28;6219132;28;20522;-75
2022/05/23 07:42:10;;;;;;;;;;;;;;;17.79;45.81;99673.13;6241065;28;20408;-76
2022/05/23 07:45:12;;;;;;;2.65;1.42;;;;;;;17.96;46.04;99668.88;6190913;28;20059;-75
2022/05/23 07:48:13;;;;;;;;;;;;;;;17.73;46.34;99672.75;6228040;28;20140;-76
2022/05/23 07:51:16;;;;;;;2.95;1.45;;;;;;;18.37;46.43;99666.59;6236147;28;19921;-75
2022/05/23 08:00:55;;;;;;;3.15;1.80;;;;;;;19.00;44.71;99657.59;6218516;28;20107;-76
2022/05/23 08:03:56;;;;;;;1.80;1.45;;;;;;;19.03;42.40;99657.31;6226436;28;20629;-75
2022/05/23 08:06:57;;;;;;;13.88;3.38;;;;;;;18.63;45.22;99666.59;6211997;28;20061;-76
2022/05/23 08:10:00;;;;;;;5.05;1.60;;;;;;;19.05;43.62;99661.44;6209498;28;20136;-75
2022/05/23 08:13:08;;;;;;;2.78;1.40;;;;;;;19.15;41.76;99653.41;6203922;28;20056;-75
2022/05/23 08:16:09;;;;;;;2.72;1.20;;;;;;;19.45;42.53;99657.28;6223393;28;20145;-76
2022/05/23 08:19:10;;;;;;;3.20;1.60;;;;;;;19.54;42.40;99650.22;6235460;28;20392;-75
2022/05/23 08:22:11;;;;;;;9.20;1.43;;;;;;;19.31;42.56;99636.75;6233497;28;20060;-76
2022/05/23 08:25:12;;;;;;;2.25;1.50;;;;;;;19.40;43.36;99645.56;6245705;28;20046;-75
2022/05/23 08:28:14;;;;;;;3.17;1.50;;;;;;;19.22;42.47;99635.06;6225847;28;20056;-76
2022/05/23 08:31:15;;;;;;;4.27;1.60;;;;;;;19.79;40.13;99634.41;6220862;28;20080;-76
2022/05/23 08:34:16;;;;;;;2.77;1.60;;;;;;;20.25;39.95;99624.19;6220244;28;20142;-75
2022/05/23 08:37:17;;;;;;;2.20;1.23;;;;;;;20.14;40.58;99622.72;6228849;28;20104;-75
2022/05/23 08:40:18;;;;;;;3.33;1.20;;;;;;;20.33;39.90;99630.28;6215925;28;20075;-76
2022/05/23 08:43:28;;;;;;;1.63;1.23;;;;;;;19.77;40.92;99624.00;6243753;28;20041;-75
2022/05/23 08:46:42;;;;;;;6.93;2.13;;;;;;;20.11;39.82;99625.66;6227089;28;20440;-76
2022/05/23 08:49:45;;;;;;;4.82;1.23;;;;;;;20.67;38.87;99615.19;6239387;28;20045;-76
2022/05/23 08:52:54;;;;;;;1.90;1.13;;;;;;;19.60;40.23;99609.03;6226784;28;20492;-76
2022/05/23 08:55:59;;;;;;;1.63;1.13;;;;;;;20.07;40.48;99609.28;6238870;28;20053;-75
2022/05/23 08:59:03;;;;;;;1.73;1.10;;;;;;;20.35;39.84;99622.19;6243939;28;20401;-75
2022/05/23 09:02:11;;;;;;;2.75;1.27;;;;;;;19.99;38.05;99613.75;6240071;28;20439;-75
2022/05/23 09:05:17;;;;;;;5.22;1.10;;;;;;;20.44;37.80;99620.34;6230907;28;20049;-75
2022/05/23 09:08:22;;;;;;;3.92;1.48;;;;;;;20.52;38.87;99615.03;6240592;28;20041;-75
2022/05/23 09:11:42;;;;;;;2.20;1.30;;;;;;;21.28;38.59;99604.88;6202295;28;20401;-75
2022/05/23 09:14:43;;;;;;;1.98;1.40;;;;;;;21.49;36.53;99606.94;6218235;28;20050;-74
2022/05/23 09:17:50;;;;;;;2.70;1.33;;;;;;;20.66;38.28;99614.38;6178031;28;20053;-75
2022/05/23 09:20:54;;;;;;;3.20;1.20;;;;;;;20.16;39.45;99601.31;6215811;28;20301;-75
2022/05/23 09:23:54;;;;;;;6.43;1.58;;;;;;;21.05;38.32;99612.78;6241650;28;20057;-74
2022/05/23 09:26:59;;;;;;;4.17;1.20;;;;;;;20.79;39.43;99599.75;6232595;28;20057;-75
2022/05/23 09:30:00;;;;;;;2.65;1.35;;;;;;;21.12;37.44;99609.22;6241954;28;20053;-75
2022/05/23 09:33:01;;;;;;;3.67;1.50;;;;;;;21.48;37.43;99592.84;6224688;28;20064;-77
2022/05/23 09:36:08;;;;;;;19.10;1.53;;;;;;;21.42;38.11;99590.03;6210278;28;20077;-76
2022/05/23 09:39:20;;;;;;;2.53;1.08;;;;;;;21.14;36.86;99595.81;6227333;28;20045;-75
2022/05/23 09:49:13;;;;;;;2.63;1.08;;;;;;;22.19;33.48;99600.59;6233488;28;20505;-74
2022/05/23 09:52:17;;;;;;;1.60;1.00;;;;;;;22.91;35.67;99589.38;6249675;28;20503;-74
2022/05/23 09:55:33;;;;;;;2.05;1.10;;;;;;;22.22;35.89;99583.50;6206852;28;20420;-75
2022/05/23 09:58:35;;;;;;;2.03;0.98;;;;;;;22.66;33.42;99588.03;6211221;28;20515;-74
2022/05/23 10:01:36;;;;;;;2.70;1.30;;;;;;;20.88;36.67;99594.25;6219288;28;20060;-74
2022/05/23 10:04:43;;;;;;;5.90;1.27;;;;;;;21.00;37.96;99597.38;6245943;28;20038;-74
2022/05/23 10:07:48;;;;;;;1.50;1.00;;;;;;;21.80;37.09;99587.47;6246292;28;20396;-74
2022/05/23 10:10:56;;;;;;;4.65;1.27;;;;;;;20.66;36.16;99584.41;6209142;28;20054;-75
2022/05/23 10:13:59;;;;;;;1.23;1.10;;;;;;;20.53;37.71;99584.91;6228072;28;20053;-75
2022/05/23 10:17:01;;;;;;;5.68;1.10;;;;;;;21.28;34.93;99573.03;6239330;28;20503;-74
2022/05/23 10:20:21;;;;;;;2.28;1.13;;;;;;;21.41;35.10;99575.09;6229169;28;20049;-74
2022/05/23 10:23:23;;;;;;;7.75;1.20;;;;;;;22.12;34.95;99567.78;6244805;28;20053;-74
2022/05/23 10:26:25;;;;;;;3.05;1.20;;;;;;;22.63;34.12;99567.97;6209392;28;20061;-74
2022/05/23 10:29:56;;;;;;;2.72;1.33;;;;;;;23.09;33.01;99570.41;6226532;28;20134;-74
2022/05/23 10:33:12;;;;;;;1.23;1.08;;;;;;;22.39;33.82;99574.38;6241869;28;20144;-74
2022/05/23 10:36:19;;;;;;;4.72;1.20;;;;;;;21.86;33.93;99584.09;6241828;28;20047;-74
2022/05/23 10:42:43;;;;;;;3.65;0.95;;;;;;;21.71;35.61;99578.75;6225928;28;20063;-74
2022/05/23 10:45:50;;;;;;;2.47;1.30;;;;;;;22.33;34.22;99569.78;6243881;28;20041;-75
2022/05/23 10:49:33;;;;;;;1.33;1.20;;;;;;;21.45;34.73;99571.94;6241820;28;20048;-75
2022/05/23 10:52:44;;;;;;;2.65;0.93;;;;;;;21.79;35.91;99578.69;6168491;28;20045;-76
2022/05/23 10:55:55;;;;;;;8.30;1.30;;;;;;;21.82;36.26;99574.84;6239529;28;20766;-75
2022/05/23 10:59:11;;;;;;;2.38;1.30;;;;;;;21.63;35.43;99576.97;6227903;28;20058;-75
2022/05/23 11:02:33;;;;;;;10.52;1.65;;;;;;;23.09;35.46;99565.09;6225029;28;20049;-75
2022/05/23 11:05:54;;;;;;;4.05;1.30;;;;;;;23.15;33.51;99576.03;6236951;28;20067;-75
2022/05/23 11:09:08;;;;;;;3.80;1.30;;;;;;;23.47;32.81;99570.25;6228975;28;20050;-75
2022/05/23 11:12:32;;;;;;;1.95;1.25;;;;;;;22.22;32.42;99552.41;6244082;28;20069;-76
2022/05/23 11:15:57;;;;;;;2.95;1.27;;;;;;;22.72;33.00;99556.22;6240950;28;20124;-75
2022/05/23 11:19:25;;;;;;;1.10;1.00;;;;;;;22.99;34.62;99550.41;6213350;28;20049;-75
2022/05/23 11:22:32;;;;;;;1.10;0.90;;;;;;;21.96;34.13;99544.84;6246483;28;20053;-75
2022/05/23 11:25:47;;;;;;;4.95;1.13;;;;;;;21.77;34.14;99546.19;6237429;28;20446;-75
2022/05/23 11:35:49;;;;;;;4.53;1.27;;;;;;;22.54;32.55;99551.25;6221702;28;20057;-75
2022/05/23 11:38:52;;;;;;;2.10;1.20;;;;;;;22.06;32.11;99548.06;6226060;28;20072;-76
2022/05/23 11:41:53;;;;;;;1.60;1.10;;;;;;;22.85;31.56;99544.91;6227403;28;20074;-75
2022/05/23 11:44:58;;;;;;;4.57;1.27;;;;;;;23.17;29.91;99536.75;6222538;28;20049;-75
2022/05/23 11:48:01;;;;;;;3.50;1.35;;;;;;;22.46;31.35;99546.03;6242533;28;20092;-75
2022/05/23 11:51:24;;;;;;;3.83;0.93;;;;;;;22.33;32.23;99538.69;6222762;28;21467;-75
2022/05/23 11:54:31;;;;;;;2.58;1.20;;;;;;;22.45;30.96;99544.41;6242734;28;20443;-75
2022/05/23 11:57:35;;;;;;;5.07;1.40;;;;;;;21.51;34.15;99528.78;6226788;28;20112;-75
2022/05/23 12:00:37;;;;;;;2.22;1.20;;;;;;;22.45;32.85;99539.09;6226422;28;20120;-75
2022/05/23 12:03:47;;;;;;;1.42;1.00;;;;;;;22.27;33.14;99531.47;6225262;28;20139;-75
2022/05/23 12:06:49;;;;;;;2.22;1.23;;;;;;;21.85;33.23;99532.84;6228690;28;20045;-75
2022/05/23 12:09:50;;;;;;;4.30;1.17;;;;;;;21.65;33.12;99521.06;6212453;28;20045;-75
2022/05/23 12:13:10;;;;;;;2.10;1.13;;;;;;;21.57;33.33;99523.78;6245449;28;20074;-75
2022/05/23 12:16:26;;;;;;;16.23;2.13;;;;;;;22.66;32.98;99517.06;6245899;28;20048;-75
2022/05/23 12:19:32;;;;;;;3.83;1.00;;;;;;;22.68;31.60;99520.38;6214246;28;20318;-77
2022/05/23 12:22:35;;;;;;;2.67;1.13;;;;;;;21.37;33.72;99523.38;6245730;28;20053;-76
2022/05/23 12:25:37;;;;;;;1.38;0.93;;;;;;;21.43;33.76;99512.09;6245290;28;20138;-77
2022/05/23 12:29:00;;;;;;;5.80;1.50;;;;;;;21.91;32.89;99516.19;6212511;28;20046;-77
2022/05/23 12:32:04;;;;;;;3.90;1.30;;;;;;;22.02;32.83;99517.56;6238012;28;20067;-77
2022/05/23 12:35:07;;;;;;;4.20;1.23;;;;;;;21.89;32.91;99512.88;6240090;28;20081;-76
2022/05/23 12:38:41;;;;;;;3.83;1.23;;;;;;;21.91;33.65;99512.72;6241460;28;20034;-77
2022/05/23 12:42:05;;;;;;;3.55;1.55;;;;;;;21.77;33.72;99508.19;6244915;28;20041;-77
2022/05/23 12:45:40;;;;;;;2.33;1.15;;;;;;;22.13;33.45;99514.50;6227266;28;20055;-77
2022/05/23 12:48:41;;;;;;;1.27;1.10;;;;;;;21.83;34.40;99510.94;6239422;28;20057;-78
2022/05/23 12:52:03;;;;;;;2.33;1.20;;;;;;;21.73;34.88;99511.19;6244172;28;20069;-74
2022/05/23 12:55:37;;;;;;;1.73;1.00;;;;;;;21.48;35.09;99510.56;6242632;28;20041;-74
2022/05/23 12:58:38;;;;;;;4.07;1.23;;;;;;;21.33;35.13;99507.81;6240357;28;20040;-76
2022/05/23 13:01:43;;;;;;;12.80;1.50;;;;;;;21.85;34.83;99513.44;6244811;28;20041;-77
2022/05/23 13:04:53;;;;;;;5.05;1.40;;;;;;;21.57;36.03;99508.66;6245934;28;20045;-77
2022/05/23 13:08:23;;;;;;;3.28;1.38;;;;;;;21.74;35.71;99506.69;6239681;28;20062;-76
2022/05/23 13:11:29;;;;;;;4.75;1.20;;;;;;;22.29;35.04;99516.16;6201231;28;20479;-77
2022/05/23 13:14:52;;;;;;;2.25;1.20;;;;;;;22.44;33.58;99508.19;6241152;28;20140;-74
2022/05/23 13:17:53;;;;;;;5.75;1.20;;;;;;;22.38;35.58;99503.59;6238851;28;20049;-75
2022/05/23 13:24:48;;;;;;;2.20;1.30;;;;;;;22.61;34.61;99500.84;6250767;28;20052;-75
2022/05/23 13:27:45;;;;;;;2.05;1.13;;;;;;;22.17;33.67;99504.31;6229871;28;20057;-75
2022/05/23 13:30:57;;;;;;;4.03;1.27;;;;;;;21.88;32.74;99500.59;6229252;28;20049;-75
2022/05/23 13:33:59;;;;;;;4.15;1.10;;;;;;;21.76;33.76;99491.41;6229803;28;20053;-75
2022/05/23 13:37:00;;;;;;;;;;;;;;;21.42;34.16;99484.72;6245620;28;20045;-75
2022/05/23 13:40:09;;;;;;;2.05;1.10;;;;;;;21.88;34.62;99489.97;6229061;28;19921;-75
2022/05/23 13:43:12;;;;;;;2.05;1.33;;;;;;;22.00;33.80;99490.38;6223998;28;20053;-75
2022/05/23 13:46:15;;;;;;;3.95;1.25;;;;;;;22.47;33.64;99491.88;6227036;28;20118;-75
2022/05/23 13:49:23;;;;;;;2.88;1.10;;;;;;;22.69;33.92;99486.63;6245319;28;20464;-78
2022/05/23 13:52:37;;;;;;;1.80;0.95;;;;;;;22.19;33.55;99491.66;6232697;28;20048;-78
2022/05/23 13:55:45;;;;;;;8.90;1.23;;;;;;;22.15;32.96;99477.09;6232165;28;20049;-74
2022/05/23 13:58:52;;;;;;;16.13;1.38;;;;;;;21.84;34.07;99480.72;6225840;28;20045;-74
2022/05/23 14:01:59;;;;;;;7.13;1.65;;;;;;;21.70;33.82;99478.84;6229011;28;20057;-75
2022/05/23 14:05:03;;;;;;;5.28;1.48;;;;;;;21.91;33.45;99480.84;6246509;28;20120;-78
2022/05/23 14:08:05;;;;;;;5.80;1.40;;;;;;;21.99;34.12;99477.25;6215066;28;20053;-77
2022/05/23 14:11:23;;;;;;;5.40;1.13;;;;;;;22.44;34.28;99478.94;6249474;28;20053;-77
2022/05/23 14:14:39;;;;;;;5.63;1.10;;;;;;;22.32;34.74;99475.94;6248323;28;20053;-77
2022/05/23 14:17:43;;;;;;;4.72;1.10;;;;;;;21.97;34.34;99480.13;6249141;28;20042;-76
2022/05/23 14:20:50;;;;;;;22.65;2.15;;;;;;;22.22;33.76;99477.22;6231581;28;20060;-74
2022/05/23 14:23:54;;;;;;;3.20;1.17;;;;;;;21.97;34.90;99471.31;6231576;28;20103;-77
2022/05/23 14:27:19;;;;;;;3.30;1.35;;;;;;;22.26;34.24;99475.88;6231339;28;20059;-76
2022/05/23 14:30:27;;;;;;;1.40;1.05;;;;;;;22.33;33.63;99479.41;6214984;28;20057;-77
2022/05/23 14:33:30;;;;;;;4.47;1.08;;;;;;;22.35;35.52;99471.28;6248901;28;20057;-77
2022/05/23 14:36:31;;;;;;;5.10;1.20;;;;;;;22.37;34.56;99472.72;6229879;28;20520;-77
2022/05/23 14:39:34;;;;;;;1.33;1.00;;;;;;;22.50;36.38;99474.72;6210786;28;20120;-77
2022/05/23 14:42:38;;;;;;;3.97;1.02;;;;;;;22.32;32.92;99472.44;6229133;28;20046;-76
2022/05/23 14:45:56;;;;;;;9.75;1.13;;;;;;;22.01;33.22;99468.13;6221086;28;20458;-76
2022/05/23 14:49:05;;;;;;;86.50;3.25;;;;;;;21.97;34.13;99474.81;6247129;28;20527;-75
2022/05/23 14:52:36;;;;;;;2.90;1.33;;;;;;;21.77;35.37;99474.50;6245956;28;20480;-75
2022/05/23 14:55:54;;;;;;;1.77;1.20;;;;;;;21.91;33.40;99478.19;6202596;28;20057;-74
2022/05/23 15:02:18;;;;;;;6.43;1.10;;;;;;;22.14;33.09;99465.66;6215923;28;20061;-75
2022/05/23 15:05:19;;;;;;;4.03;1.10;;;;;;;21.85;33.05;99476.25;6213247;28;20477;-74
2022/05/23 15:08:21;;;;;;;1.13;1.00;;;;;;;21.76;33.00;99464.03;6213466;28;20045;-75
2022/05/23 15:11:28;;;;;;;5.10;1.10;;;;;;;21.75;32.73;99460.56;6247233;28;20091;-75
2022/05/23 15:14:34;;;;;;;10.20;1.40;;;;;;;22.04;34.42;99462.44;6229785;28;20042;-75
2022/05/23 15:17:36;;;;;;;1.67;1.00;;;;;;;22.22;33.45;99451.44;6246941;28;20045;-76
2022/05/23 15:20:36;;;;;;;3.43;0.97;;;;;;;22.28;32.95;99452.59;6229464;28;20060;-76
2022/05/23 15:23:40;;;;;;;2.83;1.10;;;;;;;22.32;34.00;99452.03;6247111;28;20290;-76
2022/05/23 15:26:43;;;;;;;3.55;1.10;;;;;;;22.36;34.94;99449.81;6229157;28;20495;-76
2022/05/23 15:29:47;;;;;;;2.47;1.23;;;;;;;22.20;33.34;99452.66;6246756;28;20117;-75
2022/05/23 15:32:48;;;;;;;4.63;1.10;;;;;;;22.45;32.51;99450.56;6229085;28;20061;-76
2022/05/23 15:35:49;;;;;;;3.03;1.30;;;;;;;22.26;32.88;99452.75;6246723;28;20052;-75
2022/05/23 15:38:50;;;;;;;4.87;1.17;;;;;;;22.23;33.68;99447.81;6229089;28;20057;-75
2022/05/23 15:42:17;;;;;;;4.13;1.20;;;;;;;22.05;33.71;99450.81;6232032;28;20439;-75
2022/05/23 15:45:26;;;;;;;1.67;1.00;;;;;;;22.06;33.12;99449.78;6245939;28;20041;-74